• Join FlightAware (Why Join?)
  • Login
  • US Flag 
11:22PM EDT


 

Airport Tracker/Info


-or-


 

Live Flight TrackerFlight Track Log ✈ MSR962 ✈ 04-May-2013 ✈ HECA / CAI - RJBB / KIX

Flight Track Log - Related Links

Times and Time Zones

All times are in EDT time to prevent confusion due to time zone crossing. See the MSR962 flight status page for this flight to view local times or setup timezone preferences in your user account.

Time Position Orientation Groundspeed Altitude Reporting Facility
EDT Latitude Longitude Course Direction KTS MPH feet Rate Location/Type
05:49PM 30.4175 31.8737 54° Northeast  Level Estimated
05:50PM 30.4911 31.9911 54° Northeast  Level Estimated
05:51PM 30.5646 32.1088 54° Northeast  Level Estimated
05:52PM 30.6381 32.2266 54° Northeast  Level Estimated
05:53PM 30.7114 32.3446 54° Northeast  Level Estimated
05:54PM 30.7846 32.4628 54° Northeast  Level Estimated
05:55PM 30.8577 32.5811 54° Northeast  Level Estimated
05:56PM 30.9306 32.6997 54° Northeast  Level Estimated
05:57PM 31.0035 32.8184 54° Northeast  Level Estimated
05:58PM 31.0763 32.9373 54° Northeast  Level Estimated
05:59PM 31.1490 33.0564 54° Northeast  Level Estimated
06:00PM 31.2215 33.1757 55° Northeast  Level Estimated
06:01PM 31.2939 33.2951 55° Northeast  Level Estimated
06:02PM 31.3663 33.4148 55° Northeast  Level Estimated
06:03PM 31.4385 33.5346 55° Northeast  Level Estimated
06:04PM 31.5106 33.6546 55° Northeast  Level Estimated
06:05PM 31.5826 33.7748 55° Northeast  Level Estimated
06:06PM 31.6545 33.8952 55° Northeast  Level Estimated
06:07PM 31.7262 34.0157 55° Northeast  Level Estimated
06:07PM 32.3200 31.7830 55° Northeast 463 533 36,000  Level FlightAware
06:08PM 31.7979 34.1365 55° Northeast  Level Estimated
06:08PM 32.3770 31.8380 39° Northeast 463 533 36,000  Level FlightAware
06:09PM 32.5190 31.9740 39° Northeast 36,000  Level FlightAware
06:10PM 32.5800 32.0320 39° Northeast 463 533 36,000  Level FlightAware
06:10PM 32.6540 32.1240 46° Northeast 472 543 36,000  Level FlightAware
06:11PM 32.7200 32.2110 48° Northeast 471 542 36,000  Level FlightAware
06:12PM 32.7930 32.3120 49° Northeast 471 542 36,000  Level FlightAware
06:13PM 32.8580 32.3980 48° Northeast 468 539 36,000  Level FlightAware
06:14PM 32.9660 32.5450 49° Northeast 472 543 36,000  Level FlightAware
06:15PM 33.0420 32.6490 49° Northeast 472 543 36,000  Level FlightAware
06:15PM 33.0990 32.7270 49° Northeast 472 543 36,000  Level FlightAware
06:16PM 33.1560 32.8060 49° Northeast 473 544 36,000  Level FlightAware
06:17PM 33.2220 32.8960 49° Northeast 469 540 36,000  Level FlightAware
06:18PM 33.2790 32.9750 49° Northeast 474 545 36,000  Level FlightAware
06:18PM 33.3370 33.0550 49° Northeast 472 543 36,000  Level FlightAware
06:19PM 33.4020 33.1450 49° Northeast 471 542 36,000  Level FlightAware
06:20PM 33.4670 33.2340 49° Northeast 471 542 36,000  Level FlightAware
06:20PM 33.5220 33.3110 49° Northeast 470 541 36,000  Level FlightAware
06:21PM 33.5800 33.3920 49° Northeast 471 542 36,000  Level FlightAware
06:22PM 33.6450 33.4830 49° Northeast 472 543 36,000  Level FlightAware
06:23PM 33.7220 33.5910 49° Northeast 473 544 36,000  Level FlightAware
06:23PM 33.7810 33.6740 49° Northeast 474 545 36,000  Level FlightAware
06:24PM 33.8400 33.7570 49° Northeast 474 545 36,000  Level FlightAware
06:25PM 33.8980 33.8380 49° Northeast 475 547 36,000  Level FlightAware
06:26PM 33.9610 33.9270 50° Northeast 474 545 36,000  Level FlightAware
06:26PM 34.0230 34.0150 50° Northeast 474 545 36,000  Level FlightAware
06:27PM 34.0870 34.1060 50° Northeast 472 543 36,000  Level FlightAware
06:28PM 34.1440 34.1870 50° Northeast 471 542 36,000  Level FlightAware
06:28PM 34.1980 34.2650 50° Northeast 469 540 36,000  Level FlightAware
06:29PM 34.2640 34.3580 49° Northeast 466 536 36,000  Level FlightAware
06:30PM 34.3160 34.4330 50° Northeast 466 536 36,000  Level FlightAware
06:30PM 34.3720 34.5140 50° Northeast 466 536 36,000  Level FlightAware
06:31PM 34.4360 34.6050 50° Northeast 468 539 36,000  Level FlightAware
06:32PM 34.4910 34.6860 51° Northeast 468 539 36,000  Level FlightAware
06:33PM 34.5550 34.7790 50° Northeast 469 540 36,000  Level FlightAware
06:33PM 34.6090 34.8570 50° Northeast 470 541 36,000  Level FlightAware
06:34PM 34.6830 34.9650 50° Northeast 472 543 36,000  Level FlightAware
06:35PM 34.7370 35.0420 50° Northeast 471 542 36,000  Level FlightAware
06:35PM 34.7840 35.1120 51° Northeast 471 542 36,000  Level FlightAware
06:36PM 34.8690 35.2370 50° Northeast 472 543 36,000  Level FlightAware
06:37PM 34.9290 35.3230 50° Northeast 472 543 36,000  Level FlightAware
06:38PM 34.9770 35.3930 50° Northeast 472 543 36,000  Level FlightAware
06:39PM 35.0240 35.4620 50° Northeast 472 543 36,000  Level FlightAware
06:39PM 35.0720 35.5320 50° Northeast 472 543 36,000  Level FlightAware
06:40PM 35.1200 35.6010 50° Northeast 472 543 36,000  Level FlightAware
06:41PM 35.1790 35.6880 50° Northeast 472 543 36,000  Level FlightAware
06:41PM 35.2270 35.7580 50° Northeast 472 543 36,000  Level FlightAware
06:42PM 35.2750 35.8270 50° Northeast 472 543 36,000  Level FlightAware
06:43PM 35.3230 35.8970 50° Northeast 472 543 36,000  Level FlightAware
06:43PM 35.3700 35.9670 51° Northeast 472 543 36,000  Level FlightAware
06:44PM 35.4300 36.0540 50° Northeast 472 543 36,000  Level FlightAware
06:45PM 35.4780 36.1240 50° Northeast 472 543 36,000  Level FlightAware
06:46PM 35.5250 36.1940 50° Northeast 472 543 36,000  Level FlightAware
06:48PM 35.6600 36.4472 57° Northeast  Level Estimated
06:49PM 35.7284 36.5763 57° Northeast  Level Estimated
06:50PM 35.7967 36.7056 57° Northeast  Level Estimated
06:51PM 35.8649 36.8352 57° Northeast  Level Estimated
06:52PM 35.9329 36.9649 57° Northeast  Level Estimated
06:53PM 36.0008 37.0949 57° Northeast  Level Estimated
06:54PM 36.0685 37.2251 57° Northeast  Level Estimated
06:55PM 36.1361 37.3555 57° Northeast  Level Estimated
06:56PM 36.2036 37.4862 57° Northeast  Level Estimated
06:57PM 36.2709 37.6171 57° Northeast  Level Estimated
06:58PM 36.3381 37.7481 58° Northeast  Level Estimated
06:59PM 36.4051 37.8795 58° Northeast  Level Estimated
07:00PM 36.4720 38.0110 58° Northeast  Level Estimated
07:01PM 36.5387 38.1428 58° Northeast  Level Estimated
07:02PM 36.6054 38.2748 58° Northeast  Level Estimated
07:03PM 36.6718 38.4071 58° Northeast  Level Estimated
07:04PM 36.7381 38.5395 58° Northeast  Level Estimated
07:05PM 36.8043 38.6722 58° Northeast  Level Estimated
07:06PM 36.8703 38.8051 58° Northeast  Level Estimated
07:07PM 36.9361 38.9383 58° Northeast  Level Estimated
07:08PM 37.0018 39.0717 58° Northeast  Level Estimated
07:09PM 37.0674 39.2053 58° Northeast  Level Estimated
07:10PM 37.1328 39.3391 58° Northeast  Level Estimated
07:11PM 37.1981 39.4732 59° Northeast  Level Estimated
07:12PM 37.2632 39.6075 59° Northeast  Level Estimated
07:13PM 37.3281 39.7420 59° Northeast  Level Estimated
07:14PM 37.3929 39.8768 59° Northeast  Level Estimated
07:15PM 37.4576 40.0118 59° Northeast  Level Estimated
07:16PM 37.5221 40.1470 59° Northeast  Level Estimated
07:17PM 37.5864 40.2825 59° Northeast  Level Estimated
07:18PM 37.6506 40.4182 59° Northeast  Level Estimated
07:19PM 37.7147 40.5542 59° Northeast  Level Estimated
07:20PM 37.7785 40.6903 59° Northeast  Level Estimated
07:21PM 37.8423 40.8268 59° Northeast  Level Estimated
07:22PM 37.9058 40.9634 59° Northeast  Level Estimated
07:23PM 37.9692 41.1003 60° Northeast  Level Estimated
07:24PM 38.0325 41.2374 60° Northeast  Level Estimated
07:25PM 38.0956 41.3748 60° Northeast  Level Estimated
07:26PM 38.1585 41.5124 60° Northeast  Level Estimated
07:27PM 38.2213 41.6502 60° Northeast  Level Estimated
07:28PM 38.2839 41.7883 60° Northeast  Level Estimated
07:29PM 38.3463 41.9266 60° Northeast  Level Estimated
07:30PM 38.4086 42.0651 60° Northeast  Level Estimated
07:31PM 38.4707 42.2039 60° Northeast  Level Estimated
07:32PM 38.5326 42.3429 60° Northeast  Level Estimated
07:33PM 38.5944 42.4822 60° Northeast  Level Estimated
07:34PM 38.6561 42.6217 60° Northeast  Level Estimated
07:35PM 38.7175 42.7614 61° Northeast  Level Estimated
07:36PM 38.7788 42.9014 61° Northeast  Level Estimated
07:37PM 38.8399 43.0416 61° Northeast  Level Estimated
07:38PM 38.9009 43.1821 61° Northeast  Level Estimated
07:39PM 38.9617 43.3228 61° Northeast  Level Estimated
07:40PM 39.0223 43.4637 61° Northeast  Level Estimated
07:41PM 39.0827 43.6049 61° Northeast  Level Estimated
07:42PM 39.1430 43.7463 61° Northeast  Level Estimated
07:43PM 39.2031 43.8880 61° Northeast  Level Estimated
07:44PM 39.2631 44.0299 61° Northeast  Level Estimated
07:45PM 39.3228 44.1721 61° Northeast  Level Estimated
07:46PM 39.3824 44.3145 62° Northeast  Level Estimated
07:47PM 39.4418 44.4571 62° Northeast  Level Estimated
07:48PM 39.5010 44.6000 62° Northeast  Level Estimated
07:49PM 39.5601 44.7431 62° Northeast  Level Estimated
07:50PM 39.6190 44.8865 62° Northeast  Level Estimated
07:51PM 39.6777 45.0301 62° Northeast  Level Estimated
07:52PM 39.7362 45.1740 62° Northeast  Level Estimated
07:53PM 39.7946 45.3181 62° Northeast  Level Estimated
07:54PM 39.8528 45.4624 62° Northeast  Level Estimated
07:55PM 39.9108 45.6070 62° Northeast  Level Estimated
07:56PM 39.9686 45.7518 62° Northeast  Level Estimated
07:57PM 40.0262 45.8969 63° Northeast  Level Estimated
07:58PM 40.0837 46.0422 63° Northeast  Level Estimated
07:59PM 40.1410 46.1878 63° Northeast  Level Estimated
08:00PM 40.1981 46.3336 63° Northeast  Level Estimated
08:01PM 40.2550 46.4797 63° Northeast  Level Estimated
08:02PM 40.3117 46.6260 63° Northeast  Level Estimated
08:03PM 40.3682 46.7725 63° Northeast  Level Estimated
08:04PM 40.4246 46.9193 63° Northeast  Level Estimated
08:05PM 40.4808 47.0664 63° Northeast  Level Estimated
08:06PM 40.5367 47.2137 63° Northeast  Level Estimated
08:07PM 40.5925 47.3612 63° Northeast  Level Estimated
08:08PM 40.6481 47.5090 64° Northeast  Level Estimated
08:09PM 40.7036 47.6570 64° Northeast  Level Estimated
08:10PM 40.7588 47.8053 64° Northeast  Level Estimated
08:11PM 40.8138 47.9538 64° Northeast  Level Estimated
08:12PM 40.8687 48.1026 64° Northeast  Level Estimated
08:13PM 40.9233 48.2516 64° Northeast  Level Estimated
08:14PM 40.9778 48.4009 64° Northeast  Level Estimated
08:15PM 41.0321 48.5504 64° Northeast  Level Estimated
08:16PM 41.0862 48.7001 64° Northeast  Level Estimated
08:17PM 41.1400 48.8501 64° Northeast  Level Estimated
08:18PM 41.1937 49.0004 65° Northeast  Level Estimated
08:19PM 41.2472 49.1508 65° Northeast  Level Estimated
08:20PM 41.3005 49.3016 65° Northeast  Level Estimated
08:21PM 41.3536 49.4526 65° Northeast  Level Estimated
08:22PM 41.4065 49.6038 65° Northeast  Level Estimated
08:23PM 41.4592 49.7553 65° Northeast  Level Estimated
08:24PM 41.5117 49.9070 65° Northeast  Level Estimated
08:25PM 41.5640 50.0589 65° Northeast  Level Estimated
08:25PM 42.1510 49.9170 65° Northeast 472 543 39,000  Level FlightAware
08:26PM 41.6161 50.2112 65° Northeast  Level Estimated
08:26PM 42.2090 50.0290 55° Northeast 472 543 39,000  Level FlightAware
08:27PM 42.2520 50.1110 55° Northeast 472 543 39,000  Level FlightAware
08:27PM 42.2950 50.1930 55° Northeast 472 543 39,000  Level FlightAware
08:28PM 42.3480 50.2960 55° Northeast 472 543 39,000  Level FlightAware
08:29PM 42.3900 50.3780 55° Northeast 472 543 39,000  Level FlightAware
08:29PM 42.4330 50.4600 55° Northeast 472 543 39,000  Level FlightAware
08:30PM 42.4760 50.5430 55° Northeast 472 543 39,000  Level FlightAware
08:31PM 42.6240 50.7520 46° Northeast 469 540 39,000  Level FlightAware
08:32PM 42.6740 50.8270 48° Northeast 469 540 39,000  Level FlightAware
08:32PM 42.7230 50.9010 48° Northeast 469 540 39,000  Level FlightAware
08:33PM 42.7720 50.9760 48° Northeast 469 540 39,000  Level FlightAware
08:34PM 42.8220 51.0510 48° Northeast 469 540 39,000  Level FlightAware
08:34PM 42.8590 51.1070 48° Northeast 469 540 39,000  Level FlightAware
08:35PM 42.9200 51.2000 48° Northeast 469 540 39,000  Level FlightAware
08:36PM 43.0540 51.4100 49° Northeast 474 545 39,000  Level FlightAware
08:37PM 43.1110 51.4980 48° Northeast 474 545 39,000  Level FlightAware
08:37PM 43.1770 51.6010 49° Northeast 472 543 39,000  Level FlightAware
08:38PM 43.2290 51.6800 48° Northeast 472 543 39,000  Level FlightAware
08:39PM 43.2790 51.7560 48° Northeast 472 543 39,000  Level FlightAware
08:39PM 43.3280 51.8320 48° Northeast 472 543 39,000  Level FlightAware
08:40PM 43.3780 51.9080 48° Northeast 472 543 39,000  Level FlightAware
08:41PM 43.4400 52.0020 48° Northeast 472 543 39,000  Level FlightAware
08:42PM 43.4900 52.0780 48° Northeast 472 543 39,000  Level FlightAware
08:42PM 43.5390 52.1550 49° Northeast 472 543 39,000  Level FlightAware
08:43PM 43.5890 52.2310 48° Northeast 472 543 39,000  Level FlightAware
08:44PM 43.6390 52.3070 48° Northeast 472 543 39,000  Level FlightAware
08:44PM 43.7010 52.4020 48° Northeast 472 543 39,000  Level FlightAware
08:45PM 43.7500 52.4790 49° Northeast 472 543 39,000  Level FlightAware
08:46PM 43.8000 52.5550 48° Northeast 472 543 39,000  Level FlightAware
08:46PM 43.8500 52.6320 48° Northeast 472 543 39,000  Level FlightAware
08:47PM 43.9120 52.7270 48° Northeast 472 543 39,000  Level FlightAware
08:50PM 44.0199 53.0979 68° East  Level Estimated
08:51PM 44.0665 53.2596 68° East  Level Estimated
08:52PM 44.1128 53.4215 68° East  Level Estimated
08:53PM 44.1589 53.5837 68° East  Level Estimated
08:54PM 44.2048 53.7462 68° East  Level Estimated
08:55PM 44.2504 53.9089 69° East  Level Estimated
08:56PM 44.2958 54.0718 69° East  Level Estimated
08:57PM 44.3410 54.2350 69° East  Level Estimated
08:58PM 44.3859 54.3985 69° East  Level Estimated
08:59PM 44.4306 54.5622 69° East  Level Estimated
09:00PM 44.4751 54.7261 69° East  Level Estimated
09:01PM 44.5193 54.8903 69° East  Level Estimated
09:02PM 44.5633 55.0548 69° East  Level Estimated
09:03PM 44.6071 55.2195 69° East  Level Estimated
09:04PM 44.6506 55.3844 70° East  Level Estimated
09:05PM 44.6939 55.5496 70° East  Level Estimated
09:06PM 44.7370 55.7151 70° East  Level Estimated
09:07PM 44.7798 55.8807 70° East  Level Estimated
09:08PM 44.8223 56.0467 70° East  Level Estimated
09:09PM 44.8647 56.2129 70° East  Level Estimated
09:10PM 44.9068 56.3793 70° East  Level Estimated
09:11PM 44.9486 56.5459 70° East  Level Estimated
09:12PM 44.9902 56.7128 71° East  Level Estimated
09:13PM 45.0316 56.8800 71° East  Level Estimated
09:14PM 45.0727 57.0474 71° East  Level Estimated
09:15PM 45.1136 57.2150 71° East  Level Estimated
09:16PM 45.1542 57.3829 71° East  Level Estimated
09:17PM 45.1946 57.5510 71° East  Level Estimated
09:18PM 45.2347 57.7193 71° East  Level Estimated
09:19PM 45.2746 57.8879 71° East  Level Estimated
09:20PM 45.3143 58.0568 71° East  Level Estimated
09:21PM 45.3536 58.2258 72° East  Level Estimated
09:22PM 45.3928 58.3951 72° East  Level Estimated
09:23PM 45.4317 58.5646 72° East  Level Estimated
09:24PM 45.4703 58.7344 72° East  Level Estimated
09:25PM 45.5087 58.9044 72° East  Level Estimated
09:26PM 45.5468 59.0746 72° East  Level Estimated
09:27PM 45.5847 59.2450 72° East  Level Estimated
09:28PM 45.6223 59.4157 72° East  Level Estimated
09:29PM 45.6597 59.5866 73° East  Level Estimated
09:30PM 45.6968 59.7578 73° East  Level Estimated
09:31PM 45.7337 59.9291 73° East  Level Estimated
09:32PM 45.7703 60.1007 73° East  Level Estimated
09:33PM 45.8066 60.2725 73° East  Level Estimated
09:34PM 45.8427 60.4446 73° East  Level Estimated
09:35PM 45.8786 60.6168 73° East  Level Estimated
09:36PM 45.9141 60.7893 73° East  Level Estimated
09:37PM 45.9494 60.9620 74° East  Level Estimated
09:38PM 45.9845 61.1349 74° East  Level Estimated
09:39PM 46.0193 61.3081 74° East  Level Estimated
09:40PM 46.0538 61.4814 74° East  Level Estimated
09:41PM 46.0881 61.6550 74° East  Level Estimated
09:42PM 46.1221 61.8288 74° East  Level Estimated
09:43PM 46.1558 62.0028 74° East  Level Estimated
09:44PM 46.1893 62.1770 74° East  Level Estimated
09:45PM 46.2225 62.3514 75° East  Level Estimated
09:46PM 46.2555 62.5260 75° East  Level Estimated
09:47PM 46.2881 62.7009 75° East  Level Estimated
09:48PM 46.3205 62.8759 75° East  Level Estimated
09:49PM 46.3527 63.0512 75° East  Level Estimated
09:50PM 46.3846 63.2267 75° East  Level Estimated
09:51PM 46.4162 63.4023 75° East  Level Estimated
09:52PM 46.4475 63.5782 75° East  Level Estimated
09:53PM 46.4786 63.7543 76° East  Level Estimated
09:54PM 46.5094 63.9305 76° East  Level Estimated
09:55PM 46.5399 64.1070 76° East  Level Estimated
09:56PM 46.5702 64.2837 76° East  Level Estimated
09:57PM 46.6002 64.4605 76° East  Level Estimated
09:58PM 46.6299 64.6376 76° East  Level Estimated
09:59PM 46.6593 64.8148 76° East  Level Estimated
10:00PM 46.6885 64.9923 76° East  Level Estimated
10:01PM 46.7174 65.1699 77° East  Level Estimated
10:02PM 46.7460 65.3478 77° East  Level Estimated
10:03PM 46.7743 65.5258 77° East  Level Estimated
10:04PM 46.8024 65.7040 77° East  Level Estimated
10:05PM 46.8301 65.8824 77° East  Level Estimated
10:06PM 46.8577 66.0609 77° East  Level Estimated
10:07PM 46.8849 66.2397 77° East  Level Estimated
10:08PM 46.9118 66.4186 78° East  Level Estimated
10:09PM 46.9385 66.5977 78° East  Level Estimated
10:10PM 46.9649 66.7770 78° East  Level Estimated
10:11PM 46.9910 66.9565 78° East  Level Estimated
10:12PM 47.0168 67.1361 78° East  Level Estimated
10:13PM 47.0424 67.3159 78° East  Level Estimated
10:14PM 47.0676 67.4959 78° East  Level Estimated
10:15PM 47.0926 67.6761 78° East  Level Estimated
10:16PM 47.1173 67.8564 79° East  Level Estimated
10:17PM 47.1418 68.0369 79° East  Level Estimated
10:18PM 47.1659 68.2175 79° East  Level Estimated
10:19PM 47.1898 68.3984 79° East  Level Estimated
10:20PM 47.2133 68.5793 79° East  Level Estimated
10:21PM 47.2366 68.7605 79° East  Level Estimated
10:22PM 47.2596 68.9418 79° East  Level Estimated
10:23PM 47.2823 69.1232 79° East  Level Estimated
10:24PM 47.3047 69.3048 80° East  Level Estimated
10:25PM 47.3269 69.4866 80° East  Level Estimated
10:26PM 47.3487 69.6685 80° East  Level Estimated
10:27PM 47.3703 69.8506 80° East  Level Estimated
10:28PM 47.3915 70.0328 80° East  Level Estimated
10:29PM 47.4125 70.2151 80° East  Level Estimated
10:30PM 47.4332 70.3976 80° East  Level Estimated
10:31PM 47.4536 70.5803 81° East  Level Estimated
10:32PM 47.4737 70.7630 81° East  Level Estimated
10:33PM 47.4935 70.9460 81° East  Level Estimated
10:34PM 47.5131 71.1290 81° East  Level Estimated
10:35PM 47.5323 71.3122 81° East  Level Estimated
10:36PM 47.5513 71.4956 81° East  Level Estimated
10:37PM 47.5699 71.6790 81° East  Level Estimated
10:38PM 47.5883 71.8626 81° East  Level Estimated
10:39PM 47.6064 72.0463 82° East  Level Estimated
10:40PM 47.6241 72.2302 82° East  Level Estimated
10:41PM 47.6416 72.4141 82° East  Level Estimated
10:42PM 47.6588 72.5982 82° East  Level Estimated
10:43PM 47.6757 72.7824 82° East  Level Estimated
10:44PM 47.6923 72.9668 82° East  Level Estimated
10:45PM 47.7086 73.1512 82° East  Level Estimated
10:46PM 47.7246 73.3358 83° East  Level Estimated
10:47PM 47.7403 73.5204 83° East  Level Estimated
10:48PM 47.7557 73.7052 83° East  Level Estimated
10:49PM 47.7709 73.8901 83° East  Level Estimated
10:50PM 47.7857 74.0751 83° East  Level Estimated
10:51PM 47.8002 74.2602 83° East  Level Estimated
10:52PM 47.8144 74.4454 83° East  Level Estimated
10:53PM 47.8284 74.6307 84° East  Level Estimated
10:54PM 47.8420 74.8161 84° East  Level Estimated
10:55PM 47.8553 75.0016 84° East  Level Estimated
10:56PM 47.8683 75.1872 84° East  Level Estimated
10:57PM 47.8811 75.3729 84° East  Level Estimated
10:58PM 47.8935 75.5587 84° East  Level Estimated
10:59PM 47.9056 75.7445 84° East  Level Estimated
11:00PM 47.9175 75.9305 85° East  Level Estimated
11:01PM 47.9290 76.1165 85° East  Level Estimated
11:02PM 47.9402 76.3026 85° East  Level Estimated
11:03PM 47.9511 76.4888 85° East  Level Estimated
11:04PM 47.9618 76.6751 85° East  Level Estimated
11:05PM 47.9721 76.8615 85° East  Level Estimated
11:06PM 47.9821 77.0479 85° East  Level Estimated
11:07PM 47.9919 77.2344 85° East  Level Estimated
11:08PM 48.0013 77.4209 86° East  Level Estimated
11:09PM 48.0104 77.6076 86° East  Level Estimated
11:10PM 48.0192 77.7943 86° East  Level Estimated
11:11PM 48.0277 77.9810 86° East  Level Estimated
11:12PM 48.0360 78.1678 86° East  Level Estimated
11:13PM 48.0439 78.3547 86° East  Level Estimated
11:14PM 48.0515 78.5416 86° East  Level Estimated
11:15PM 48.0588 78.7286 87° East  Level Estimated
11:16PM 48.0658 78.9157 87° East  Level Estimated
11:17PM 48.0725 79.1028 87° East  Level Estimated
11:18PM 48.0789 79.2899 87° East  Level Estimated
11:19PM 48.0850 79.4771 87° East  Level Estimated
11:20PM 48.0908 79.6643 87° East  Level Estimated
11:21PM 48.0962 79.8516 87° East  Level Estimated
11:22PM 48.1014 80.0389 88° East  Level Estimated
11:23PM 48.1063 80.2262 88° East  Level Estimated
11:24PM 48.1109 80.4136 88° East  Level Estimated
11:25PM 48.1151 80.6010 88° East  Level Estimated
11:26PM 48.1191 80.7885 88° East  Level Estimated
11:27PM 48.1227 80.9759 88° East  Level Estimated
11:28PM 48.1261 81.1634 88° East  Level Estimated
11:29PM 48.1291 81.3510 89° East  Level Estimated
11:30PM 48.1319 81.5385 89° East  Level Estimated
11:31PM 48.1343 81.7261 89° East  Level Estimated
11:32PM 48.1364 81.9136 89° East  Level Estimated
11:33PM 48.1382 82.1012 89° East  Level Estimated
11:34PM 48.1398 82.2888 89° East  Level Estimated
11:35PM 48.1410 82.4764 89° East  Level Estimated
11:36PM 48.1419 82.6640 90° East  Level Estimated
11:37PM 48.1425 82.8517 90° East  Level Estimated
11:38PM 48.1428 83.0393 90° East  Level Estimated
11:39PM 48.1428 83.2269 90° East  Level Estimated
11:40PM 48.1424 83.4146 90° East  Level Estimated
11:41PM 48.1418 83.6022 90° East  Level Estimated
11:42PM 48.1409 83.7898 90° East  Level Estimated
11:43PM 48.1397 83.9774 90° East  Level Estimated
11:44PM 48.1381 84.1650 91° East  Level Estimated
11:45PM 48.1363 84.3526 91° East  Level Estimated
11:46PM 48.1342 84.5402 91° East  Level Estimated
11:47PM 48.1317 84.7277 91° East  Level Estimated
11:48PM 48.1289 84.9153 91° East  Level Estimated
11:49PM 48.1259 85.1028 91° East  Level Estimated
11:50PM 48.1225 85.2903 91° East  Level Estimated
11:51PM 48.1188 85.4777 92° East  Level Estimated
11:52PM 48.1149 85.6652 92° East  Level Estimated
11:53PM 48.1106 85.8526 92° East  Level Estimated
11:54PM 48.1060 86.0399 92° East  Level Estimated
11:55PM 48.1011 86.2273 92° East  Level Estimated
11:56PM 48.0959 86.4146 92° East  Level Estimated
11:57PM 48.0904 86.6018 92° East  Level Estimated
11:58PM 48.0846 86.7891 93° East  Level Estimated
11:59PM 48.0785 86.9762 93° East  Level Estimated
12:00AM 48.0721 87.1634 93° East  Level Estimated
12:01AM 48.0654 87.3505 93° East  Level Estimated
12:02AM 48.0584 87.5375 93° East  Level Estimated
12:03AM 48.0510 87.7245 93° East  Level Estimated
12:04AM 48.0434 87.9114 93° East  Level Estimated
12:05AM 48.0355 88.0983 94° East  Level Estimated
12:06AM 48.0273 88.2851 94° East  Level Estimated
12:07AM 48.0187 88.4718 94° East  Level Estimated
12:08AM 48.0099 88.6585 94° East  Level Estimated
12:09AM 48.0008 88.8452 94° East  Level Estimated
12:10AM 47.9913 89.0317 94° East  Level Estimated
12:11AM 47.9816 89.2182 94° East  Level Estimated
12:12AM 47.9715 89.4046 95° East  Level Estimated
12:13AM 47.9612 89.5910 95° East  Level Estimated
12:14AM 47.9505 89.7773 95° East  Level Estimated
12:15AM 47.9396 89.9634 95° East  Level Estimated
12:16AM 47.9283 90.1496 95° East  Level Estimated
12:17AM 47.9168 90.3356 95° East  Level Estimated
12:18AM 47.9049 90.5215 95° East  Level Estimated
12:19AM 47.8928 90.7074 95° East  Level Estimated
12:20AM 47.8803 90.8932 96° East  Level Estimated
12:21AM 47.8676 91.0788 96° East  Level Estimated
12:22AM 47.8545 91.2644 96° East  Level Estimated
12:23AM 47.8412 91.4499 96° East  Level Estimated
12:24AM 47.8275 91.6353 96° East  Level Estimated
12:25AM 47.8136 91.8206 96° East  Level Estimated
12:26AM 47.7994 92.0058 96° East  Level Estimated
12:27AM 47.7848 92.1909 97° East  Level Estimated
12:28AM 47.7700 92.3759 97° East  Level Estimated
12:29AM 47.7548 92.5608 97° East  Level Estimated
12:30AM 47.7394 92.7456 97° East  Level Estimated
12:31AM 47.7237 92.9303 97° East  Level Estimated
12:32AM 47.7077 93.1148 97° East  Level Estimated
12:33AM 47.6913 93.2992 97° East  Level Estimated
12:34AM 47.6747 93.4836 98° East  Level Estimated
12:35AM 47.6578 93.6678 98° East  Level Estimated
12:36AM 47.6406 93.8518 98° East  Level Estimated
12:37AM 47.6231 94.0358 98° East  Level Estimated
12:38AM 47.6053 94.2196 98° East  Level Estimated
12:39AM 47.5872 94.4034 98° East  Level Estimated
12:40AM 47.5689 94.5869 98° East  Level Estimated
12:41AM 47.5502 94.7704 99° East  Level Estimated
12:42AM 47.5312 94.9537 99° East  Level Estimated
12:43AM 47.5120 95.1369 99° East  Level Estimated
12:44AM 47.4924 95.3199 99° East  Level Estimated
12:45AM 47.4726 95.5029 99° East  Level Estimated
12:46AM 47.4525 95.6856 99° East  Level Estimated
12:47AM 47.4320 95.8683 99° East  Level Estimated
12:48AM 47.4113 96.0508 99° East  Level Estimated
12:49AM 47.3903 96.2331 100° East  Level Estimated
12:50AM 47.3690 96.4153 100° East  Level Estimated
12:51AM 47.3475 96.5974 100° East  Level Estimated
12:52AM 47.3256 96.7793 100° East  Level Estimated
12:53AM 47.3035 96.9610 100° East  Level Estimated
12:54AM 47.2810 97.1426 100° East  Level Estimated
12:55AM 47.2583 97.3241 100° East  Level Estimated
12:56AM 47.2353 97.5053 101° East  Level Estimated
12:57AM 47.2120 97.6865 101° East  Level Estimated
12:58AM 47.1884 97.8674 101° East  Level Estimated
12:59AM 47.1645 98.0483 101° East  Level Estimated
01:00AM 47.1404 98.2289 101° East  Level Estimated
01:01AM 47.1159 98.4094 101° East  Level Estimated
01:02AM 47.0912 98.5897 101° East  Level Estimated
01:03AM 47.0662 98.7698 101° East  Level Estimated
01:04AM 47.0409 98.9498 102° East  Level Estimated
01:05AM 47.0154 99.1296 102° East  Level Estimated
01:06AM 46.9895 99.3092 102° East  Level Estimated
01:07AM 46.9634 99.4887 102° East  Level Estimated
01:08AM 46.9370 99.6680 102° East  Level Estimated
01:09AM 46.9103 99.8471 102° East  Level Estimated
01:10AM 46.8833 100.0260 102° East  Level Estimated
01:11AM 46.8561 100.2047 103° East  Level Estimated
01:12AM 46.8286 100.3833 103° East  Level Estimated
01:13AM 46.8008 100.5617 103° East  Level Estimated
01:14AM 46.7727 100.7399 103° East  Level Estimated
01:15AM 46.7443 100.9179 103° East  Level Estimated
01:16AM 46.7157 101.0957 103° East  Level Estimated
01:17AM 46.6868 101.2733 103° East  Level Estimated
01:18AM 46.6576 101.4508 103° East  Level Estimated
01:19AM 46.6282 101.6280 104° East  Level Estimated
01:20AM 46.5985 101.8050 104° East  Level Estimated
01:21AM 46.5685 101.9819 104° East  Level Estimated
01:22AM 46.5382 102.1585 104° East  Level Estimated
01:23AM 46.5076 102.3350 104° East  Level Estimated
01:24AM 46.4768 102.5113 104° East  Level Estimated
01:25AM 46.4458 102.6873 104° East  Level Estimated
01:26AM 46.4144 102.8632 104° East  Level Estimated
01:27AM 46.3828 103.0388 105° East  Level Estimated
01:28AM 46.3509 103.2143 105° East  Level Estimated
01:29AM 46.3187 103.3895 105° East  Level Estimated
01:30AM 46.2863 103.5646 105° East  Level Estimated
01:31AM 46.2536 103.7394 105° East  Level Estimated
01:32AM 46.2207 103.9140 105° East  Level Estimated
01:33AM 46.1874 104.0884 105° East  Level Estimated
01:34AM 46.1539 104.2626 105° East  Level Estimated
01:35AM 46.1202 104.4366 106° East  Level Estimated
01:36AM 46.0862 104.6104 106° East  Level Estimated
01:37AM 46.0519 104.7840 106° East  Level Estimated
01:38AM 46.0174 104.9573 106° East  Level Estimated
01:39AM 45.9826 105.1304 106° East  Level Estimated
01:40AM 45.9475 105.3034 106° East  Level Estimated
01:41AM 45.9122 105.4760 106° East  Level Estimated
01:42AM 45.8766 105.6485 106° East  Level Estimated
01:43AM 45.8407 105.8208 107° East  Level Estimated
01:44AM 45.8046 105.9928 107° East  Level Estimated
01:45AM 45.7683 106.1646 107° East  Level Estimated
01:46AM 45.7316 106.3362 107° East  Level Estimated
01:47AM 45.6948 106.5075 107° East  Level Estimated
01:48AM 45.6576 106.6786 107° East  Level Estimated
01:49AM 45.6202 106.8495 107° East  Level Estimated
01:50AM 45.5826 107.0202 107° East  Level Estimated
01:51AM 45.5447 107.1906 108° East  Level Estimated
01:52AM 45.5066 107.3608 108° East  Level Estimated
01:53AM 45.4682 107.5308 108° East  Level Estimated
01:54AM 45.4295 107.7006 108° East  Level Estimated
01:55AM 45.3906 107.8701 108° East  Level Estimated
01:56AM 45.3515 108.0394 108° East  Level Estimated
01:57AM 45.3121 108.2084 108° East  Level Estimated
01:58AM 45.2724 108.3772 108° East  Level Estimated
01:59AM 45.2325 108.5458 109° East  Level Estimated
02:00AM 45.1924 108.7141 109° East  Level Estimated
02:01AM 45.1520 108.8822 109° East  Level Estimated
02:02AM 45.1113 109.0501 109° East  Level Estimated
02:03AM 45.0704 109.2177 109° East  Level Estimated
02:04AM 45.0293 109.3851 109° East  Level Estimated
02:05AM 44.9879 109.5522 109° East  Level Estimated
02:06AM 44.9463 109.7191 109° East  Level Estimated
02:07AM 44.9044 109.8857 109° East  Level Estimated
02:08AM 44.8624 110.0521 110° East  Level Estimated
02:09AM 44.8200 110.2183 110° East  Level Estimated
02:10AM 44.7774 110.3842 110° East  Level Estimated
02:11AM 44.7346 110.5499 110° East  Level Estimated
02:12AM 44.6915 110.7153 110° East  Level Estimated
02:13AM 44.6482 110.8805 110° East  Level Estimated
02:14AM 44.6047 111.0454 110° East  Level Estimated
02:15AM 44.5609 111.2101 110° East  Level Estimated
02:16AM 44.5169 111.3746 111° Southeast  Level Estimated
02:17AM 44.4726 111.5387 111° Southeast  Level Estimated
02:18AM 44.4282 111.7027 111° Southeast  Level Estimated
02:19AM 44.3834 111.8664 111° Southeast  Level Estimated
02:20AM 44.3385 112.0298 111° Southeast  Level Estimated
02:21AM 44.2933 112.1930 111° Southeast  Level Estimated
02:22AM 44.2479 112.3559 111° Southeast  Level Estimated
02:23AM 44.2023 112.5186 111° Southeast  Level Estimated
02:24AM 44.1564 112.6811 111° Southeast  Level Estimated
02:25AM 44.1103 112.8432 112° Southeast  Level Estimated
02:26AM 44.0639 113.0052 112° Southeast  Level Estimated
02:27AM 44.0173 113.1668 112° Southeast  Level Estimated
02:28AM 43.9706 113.3283 112° Southeast  Level Estimated
02:29AM 43.9235 113.4894 112° Southeast  Level Estimated
02:30AM 43.8763 113.6503 112° Southeast  Level Estimated
02:31AM 43.8288 113.8110 112° Southeast  Level Estimated
02:32AM 43.7811 113.9714 112° Southeast  Level Estimated
02:33AM 43.7332 114.1315 112° Southeast  Level Estimated
02:34AM 43.6851 114.2914 113° Southeast  Level Estimated
02:35AM 43.6367 114.4510 113° Southeast  Level Estimated
02:36AM 43.5881 114.6104 113° Southeast  Level Estimated
02:37AM 43.5393 114.7695 113° Southeast  Level Estimated
02:37AM 40.3790 115.9170 113° Southeast 515 593 41,100  Level FlightAware
02:38AM 43.4903 114.9284 113° Southeast  Level Estimated
02:38AM 40.3570 116.3020 94° East 517 595 41,100  Level FlightAware
02:39AM 40.3470 116.4840 94° East 517 595 41,100  Level FlightAware
02:40AM 40.3410 116.5900 94° East 517 595 41,100  Level FlightAware
02:40AM 40.3350 116.6960 94° East 517 595 41,100  Level FlightAware
02:41AM 40.3300 116.8030 93° East 517 595 41,100  Level FlightAware
02:42AM 40.3240 116.9090 94° East 517 595 41,100  Level FlightAware
02:43AM 40.3170 117.0420 94° East 517 595 41,100  Level FlightAware
02:43AM 40.3110 117.1490 94° East 517 595 41,100  Level FlightAware
02:44AM 40.3060 117.2550 94° East 517 595 41,100  Level FlightAware
02:45AM 40.3000 117.3610 94° East 517 595 41,100  Level FlightAware
02:45AM 40.2940 117.4680 94° East 517 595 41,100  Level FlightAware
02:46AM 40.2890 117.5740 94° East 517 595 41,100  Level FlightAware
02:47AM 40.2810 117.7070 94° East 517 595 41,100  Level FlightAware
02:47AM 40.2760 117.8130 94° East 517 595 41,100  Level FlightAware
02:48AM 40.2700 117.9200 94° East 517 595 41,100 -60 Level FlightAware
02:51AM 40.1795 118.2924 108° East  Level Estimated
02:52AM 40.1412 118.4484 108° East  Level Estimated
02:53AM 40.1026 118.6041 108° East  Level Estimated
02:54AM 40.0639 118.7597 108° East  Level Estimated
02:55AM 40.0249 118.9152 108° East  Level Estimated
02:56AM 39.9858 119.0704 108° East  Level Estimated
02:57AM 39.9464 119.2255 108° East  Level Estimated
02:58AM 39.9068 119.3804 108° East  Level Estimated
02:59AM 39.8671 119.5351 108° East  Level Estimated
03:00AM 39.8271 119.6896 109° East  Level Estimated
03:01AM 39.7869 119.8440 109° East  Level Estimated
03:02AM 39.7465 119.9981 109° East  Level Estimated
03:03AM 39.7059 120.1521 109° East  Level Estimated
03:04AM 39.6651 120.3059 109° East  Level Estimated
03:05AM 39.6241 120.4596 109° East  Level Estimated
03:06AM 39.5829 120.6130 109° East  Level Estimated
03:07AM 39.5415 120.7663 109° East  Level Estimated
03:08AM 39.4999 120.9193 109° East  Level Estimated
03:09AM 39.4581 121.0722 109° East  Level Estimated
03:10AM 39.4160 121.2249 110° East  Level Estimated
03:11AM 39.3738 121.3775 110° East  Level Estimated
03:12AM 39.3314 121.5298 110° East  Level Estimated
03:13AM 39.2888 121.6820 110° East  Level Estimated
03:14AM 39.2460 121.8339 110° East  Level Estimated
03:15AM 39.2030 121.9857 110° East  Level Estimated
03:16AM 39.1598 122.1373 110° East  Level Estimated
03:17AM 39.1164 122.2887 110° East  Level Estimated
03:18AM 39.0728 122.4399 110° East  Level Estimated
03:19AM 39.0291 122.5910 110° East  Level Estimated
03:20AM 38.9851 122.7418 111° Southeast  Level Estimated
03:21AM 38.9409 122.8925 111° Southeast  Level Estimated
03:22AM 38.8965 123.0430 111° Southeast  Level Estimated
03:23AM 38.8520 123.1933 111° Southeast  Level Estimated
03:24AM 38.8072 123.3434 111° Southeast  Level Estimated
03:25AM 38.7623 123.4933 111° Southeast  Level Estimated
03:26AM 38.7172 123.6430 111° Southeast  Level Estimated
03:27AM 38.6718 123.7925 111° Southeast  Level Estimated
03:28AM 38.6263 123.9418 111° Southeast  Level Estimated
03:29AM 38.5806 124.0910 111° Southeast  Level Estimated
03:30AM 38.5348 124.2400 111° Southeast  Level Estimated
03:31AM 38.4887 124.3887 112° Southeast  Level Estimated
03:32AM 38.4424 124.5373 112° Southeast  Level Estimated
03:33AM 38.3959 124.6857 112° Southeast  Level Estimated
03:34AM 38.3493 124.8339 112° Southeast  Level Estimated
03:35AM 38.3025 124.9819 112° Southeast  Level Estimated
03:36AM 38.2555 125.1297 112° Southeast  Level Estimated
03:37AM 38.2082 125.2774 112° Southeast  Level Estimated
03:38AM 38.1609 125.4248 112° Southeast  Level Estimated
03:39AM 38.1133 125.5720 112° Southeast  Level Estimated
03:40AM 38.0655 125.7191 112° Southeast  Level Estimated
03:40AM 37.1730 125.7840 112° Southeast 522 601 41,000  Level FlightAware
03:41AM 38.0176 125.8659 112° Southeast  Level Estimated
03:41AM 37.1780 125.9340 88° East 525 604 41,000  Level FlightAware
03:41AM 37.1830 126.0550 87° East 525 604 41,000  Level FlightAware
03:42AM 37.1870 126.1690 87° East 524 603 41,000  Level FlightAware
03:43AM 37.1910 126.2890 88° East 524 603 41,000  Level FlightAware
03:43AM 37.1950 126.4130 88° East 523 602 41,000  Level FlightAware
03:44AM 37.2010 126.5730 87° East 523 602 41,000  Level FlightAware
03:45AM 37.2050 126.6930 88° East 523 602 41,000  Level FlightAware
03:46AM 37.2080 126.8150 88° East 521 600 41,000  Level FlightAware
03:46AM 37.2230 126.9490 82° East 506 582 41,000  Level FlightAware
03:47AM 37.2570 127.0560 68° East 495 570 41,000  Level FlightAware
03:48AM 37.3010 127.1550 61° Northeast 487 560 41,000  Level FlightAware
03:48AM 37.3600 127.2580 54° Northeast 480 552 41,000  Level FlightAware
03:49AM 37.4130 127.3470 53° Northeast 481 554 41,000  Level FlightAware
03:51AM 37.5240 127.6130 62° Northeast 503 579 41,000  Level FlightAware
03:52AM 37.5570 127.8150 78° East 505 581 41,000  Level FlightAware
03:54AM 37.6220 128.2320 115° Southeast 505 581 41,000  Level FlightAware
03:55AM 37.4246 128.1666 115° Southeast  Level Estimated
03:56AM 37.6220 128.4510 90° East 516 594 41,000  Level FlightAware
03:57AM 37.5540 128.6250 116° Southeast 517 595 41,000  Level FlightAware
03:57AM 37.5190 128.7180 115° Southeast 517 595 41,000  Level FlightAware
03:58AM 37.4830 128.8100 116° Southeast 517 595 41,000  Level FlightAware
03:59AM 37.4470 128.9020 116° Southeast 517 595 41,000  Level FlightAware
03:59AM 37.4120 128.9940 116° Southeast 517 595 41,000  Level FlightAware
04:00AM 37.3670 129.1090 116° Southeast 517 595 41,000  Level FlightAware
04:01AM 37.3400 129.1780 116° Southeast 517 595 41,000  Level FlightAware
04:01AM 37.3050 129.2700 116° Southeast 517 595 41,000  Level FlightAware
04:02AM 37.2690 129.3620 116° Southeast 517 595 41,000  Level FlightAware
04:03AM 37.2340 129.4530 116° Southeast 517 595 41,000  Level FlightAware
04:03AM 37.1980 129.5450 116° Southeast 517 595 41,000  Level FlightAware
04:04AM 37.1620 129.6370 116° Southeast 517 595 41,000  Level FlightAware
04:05AM 37.1180 129.7520 116° Southeast 517 595 41,000  Level FlightAware
04:06AM 37.0820 129.8430 116° Southeast 517 595 41,000  Level FlightAware
04:06AM 37.0460 129.9350 116° Southeast 517 595 41,000  Level FlightAware
04:09AM 36.9081 130.2364 120° Southeast  Level Estimated
04:10AM 36.8456 130.3721 120° Southeast  Level Estimated
04:11AM 36.7830 130.5075 120° Southeast  Level Estimated
04:12AM 36.7202 130.6427 120° Southeast  Level Estimated
04:13AM 36.6572 130.7776 120° Southeast  Level Estimated
04:14AM 36.5941 130.9124 120° Southeast  Level Estimated
04:15AM 36.5309 131.0469 120° Southeast  Level Estimated
04:15AM 36.2760 131.6250 120° Southeast 521 600 41,000  Level FlightAware
04:16AM 36.4675 131.1812 120° Southeast  Level Estimated
04:18AM 36.1381 131.9085 121° Southeast  Level Estimated
04:19AM 36.0732 132.0410 121° Southeast  Level Estimated
04:20AM 36.0082 132.1733 121° Southeast  Level Estimated
04:21AM 35.9431 132.3054 121° Southeast  Level Estimated
04:22AM 35.8777 132.4373 121° Southeast  Level Estimated
04:23AM 35.8123 132.5690 121° Southeast  Level Estimated
04:24AM 35.7467 132.7004 122° Southeast  Level Estimated
04:25AM 35.6810 132.8317 122° Southeast  Level Estimated
04:26AM 35.6151 132.9627 122° Southeast  Level Estimated
04:27AM 35.5491 133.0935 122° Southeast  Level Estimated
04:28AM 35.4829 133.2240 122° Southeast  Level Estimated
04:29AM 35.4166 133.3544 122° Southeast  Level Estimated
04:30AM 35.3502 133.4846 122° Southeast  Level Estimated
04:30AM 35.1120 133.7960 122° Southeast 450 518 17,300  Level FlightAware
04:31AM 35.0370 133.9080 129° Southeast 414 476 16,100 -480 Descending FlightAware
04:33AM 34.8800 134.0710 140° Southeast 404 465 16,000 -60 Descending FlightAware
04:34AM 34.8150 134.1070 156° South 410 472 16,000 -180 Level FlightAware
04:35AM 34.7380 134.1590 151° Southeast 410 472 15,800 -1,080 Descending FlightAware
04:35AM 34.6700 134.2050 151° Southeast 403 464 14,500 -1,800 Descending FlightAware
04:36AM 34.6020 134.2510 151° Southeast 391 450 13,300 -1,800 Descending FlightAware
04:37AM 34.5380 134.2950 150° Southeast 387 445 12,000 -1,860 Descending FlightAware
04:37AM 34.4690 134.3440 150° Southeast 376 433 10,700 -1,800 Descending FlightAware
04:38AM 34.4320 134.3910 134° Southeast 372 428 9,800 -1,680 Descending FlightAware
04:38AM 34.4100 134.4190 134° Southeast 365 420 9,300 -900 Descending FlightAware
04:39AM 34.3710 134.4710 132° Southeast 342 394 9,000 -480 Descending FlightAware
04:39AM 34.3300 134.5230 134° Southeast 314 361 8,700 -540 Descending FlightAware
04:40AM 34.3070 134.5640 124° Southeast 295 339 8,400 -420 Descending FlightAware
04:40AM 34.3010 134.5910 105° East 286 329 8,400 -300 Level FlightAware
04:41AM 34.2930 134.6260 105° East 274 315 8,200 -360 Descending FlightAware
04:41AM 34.2870 134.6570 103° East 263 303 8,100 -420 Descending FlightAware
04:41AM 34.2960 134.6880 71° East 240 276 7,900 -960 Descending FlightAware
04:42AM 34.3150 134.7140 48° Northeast 241 277 7,400 -1,140 Descending FlightAware
04:42AM 34.3350 134.7480 55° Northeast 245 282 6,900 -960 Descending FlightAware
04:43AM 34.3480 134.7690 53° Northeast 245 282 6,600 -840 Descending FlightAware
04:43AM 34.3740 134.8130 54° Northeast 234 269 6,100 -720 Descending FlightAware
04:43AM 34.3810 134.8240 52° Northeast 233 268 6,000 -780 Descending FlightAware
04:44AM 34.4000 134.8560 54° Northeast 231 266 5,600 -840 Descending FlightAware
04:44AM 34.4180 134.8870 55° Northeast 229 264 5,200 -900 Descending FlightAware
04:45AM 34.4250 134.8980 52° Northeast 228 262 5,000 -780 Descending FlightAware
04:45AM 34.4440 134.9300 54° Northeast 229 264 4,700 -840 Descending FlightAware
04:46AM 34.4620 134.9600 54° Northeast 227 261 4,200 -780 Descending FlightAware
04:46AM 34.4780 134.9860 53° Northeast 225 259 4,000 -360 Descending FlightAware
04:47AM 34.4960 135.0170 55° Northeast 224 258 3,900 -120 Descending FlightAware
04:47AM 34.5110 135.0410 53° Northeast 225 259 3,900  Level FlightAware
04:47AM 34.5300 135.0740 55° Northeast 225 259 3,900  Level FlightAware
04:48AM 34.5450 135.0990 54° Northeast 225 259 3,900  Level FlightAware
04:48AM 34.5630 135.1300 55° Northeast 225 259 3,900  Level FlightAware
04:49AM 34.5810 135.1590 53° Northeast 225 259 3,900  Level FlightAware
04:49AM 34.5970 135.1860 54° Northeast 226 260 3,900  Level FlightAware
04:50AM 34.6050 135.2020 59° Northeast 222 255 3,900 -600 Level FlightAware
04:50AM 34.6070 135.2200 82° East 227 261 3,600 -900 Descending FlightAware
04:50AM 34.6060 135.2530 92° East 223 257 3,300 -900 Descending FlightAware
04:51AM 34.6050 135.2910 92° East 226 260 2,800 -840 Descending FlightAware
04:51AM 34.6040 135.3290 92° East 217 250 2,500 -360 Descending FlightAware
04:52AM 34.6030 135.3580 92° East 202 232 2,500 -300 Level FlightAware
04:52AM 34.5980 135.3730 112° Southeast 198 228 2,300 -840 Descending FlightAware
04:52AM 34.5880 135.3780 158° South 184 212 2,100 -540 Descending FlightAware
04:53AM 34.5600 135.3750 185° South 185 213 1,900 -480 Descending FlightAware
04:53AM 34.5410 135.3660 201° Southwest 188 216 1,700 -600 Descending FlightAware
04:53AM 34.5290 135.3560 214° Southwest 185 213 1,500 -300 Descending FlightAware
04:54AM 34.5130 135.3320 231° Southwest 184 212 1,500  Level FlightAware
04:54AM 34.5040 135.3190 230° Southwest 173 199 1,500 -480 Level FlightAware
04:55AM 34.4900 135.2980 231° Southwest 165 190 1,100 -480 Descending FlightAware
04:55AM 34.4780 135.2800 231° Southwest 165 190 1,100  Level FlightAware
04:58AM 34.4273 135.2441 210° Southwest  Level Estimated
04:59AM 34.4273 135.2441 158° South  Level Estimated
05:00AM 34.4273 135.2441 158° South  Level Estimated
05:01AM 34.4273 135.2441 158° South  Level Estimated
05:02AM 34.4273 135.2441 158° South  Level Estimated
05:03AM 34.4273 135.2441 158° South  Level Estimated
05:04AM 34.4273 135.2441 158° South  Level Estimated
05:05AM 34.4273 135.2441 158° South  Level Estimated
05:06AM 34.4273 135.2441 158° South  Level Estimated
05:07AM 34.4390 135.2540 320° Northwest  Level FlightAware
05:09AM 34.4273 135.2441 215° Southwest  Level Estimated